Timeline UpdatesTrip UpdatesNews PostsPvt Posts♥♥Travel TipsAdmin PostsConv PostsFollowed PostsChat RequestsBlog PostsPNR Posts

Disclaimer
Search
 
 
Mon Nov 24, 2014 21:50:43 ISTHomeTrainsΣChainsAtlasPNRForumGalleryNewsFAQTripsMembersLoginFeedback
PNR Super Search

Ticket PNR Status Inquiry - PNR: 611-xxxxxxx

OLD STATUS

Status Last Updated on: Dec 19 2012 (12:35PM) IST

Date of Journey: Wed Dec 19, 2012   Class: AC 3-tier - 3A   (Total Seats available for this Class/Quota: Avbl >3)
Passenger 1: Can/Mod (Booking Status: W/L 4,RLGN)
Passenger 2: Can/Mod (Booking Status: W/L 5,RLGN)
Chart NOT Prepared

Dhanbad-Alappuzha Express/13351

Travel Time: 48h 47m    79 halts    Distance: 2232 km    Avg Speed: 45 km/hr
Type: Mail/Express
Zone: ECR/East Central
Departs @ 15:25 (Avg 18m late)
Platform# ???
SMTWTFS
Hatia/HTE 
Arrives @ 16:12 +2 nights (Avg 59m late)
Platform# 1
SMTWTFS
Thrissur/TCR 

79 halts. 353 intermediate Stations between Hatia and Thrissur

Show ALL intermediate Stations  Show Old Time-Table

#TrkCodeStation NameX/OArrivesAvgDepartsAvgHaltPFDay#KmSpeedElevZoneAddress
1/==/DHNDhanbad Junction (9)  -10:50+651-169.230235mECR2319801. Div. HQ ECR, Jharkhand
2/==/KTHKatrasgarh (1)  11:18+711:20+82m11-155.434198mECRKatrasgarh, Jharkhand
3/--/CRPChandrapura Junction (3)X  11:56+611:58+82m11-134.935227mECR06549-242555, Jharkhand
4/==/BKSCBokaro Steel City (3)  12:25+1112:35+1010m21-119.371245mSER06542-253861, Jharkhand
5/==/PNWPundhag (3)  12:49+1112:50+121m21-102.763291mSERDist - Puruliya -723215, West Bengal
6/==/JAAJhalida (3)  13:12+1413:13+151m--1-79.438297mSERJhalida, West Bengal
7/==/MURIMuri Junction (3)X  13:33+1513:35+152m21-66.748254mSER06522-222444, Jharkhand
8/==/RNCRanchi Junction (6)X  14:50+1815:05+1815m31-7.028632mSERDiv HQ SER, Jharkhand
9/==/HTEHatia (3)»  15:20+1815:25+185m--10.078657mSER2788599, Jharkhand
10/--/GBXGovindpur Road (3)  15:58 15:57+2516:00 15:58+262 1m--141.782577mSERkhunti, Jharkhand
11/--/BANOBano (2)  16:45 16:37+3116:46 16:38+321m--194.936452mSERDist. Gumla, Jharkhand
12/--/NXNNuagaon  17:49+1317:50+161m--1137.052218mSERKeonjhar, Odisha
13/-=/BNDMBondamunda (2)  18:14-18:15-1m--1157.726213mSERRourkela, Odisha
14/--/ROURourkela Junction (5)X  18:30+1619:00+2630m21164.264198mSERRourkela, Odisha
15/==/GPRaj Gangpur (3)O  19:28+3019:29+321m11194.169237mSERRaj Ganpur, Odisha
16/==/BMBBamra (3)X  19:59+3420:00+351m--1228.755259mSERBamra PH : 06642-229268, Odisha
17/==/JSGJharsuguda Junction (5)  20:40+2320:50+2210m11265.269236mSERJharsuguda, Odisha
18|==!RGLRengaliO  21:15 21:13+4521:17 21:15+462m--1291.669208mECoRState Highway 10, Odisha
19|==|SBPDSambalpur Road  21:35 21:33+021:37 21:35+02m--1312.39161mECoRSambalpur, Odisha
20|--|SBPSambalpur Junction (3)X  21:45+4921:55+4910m--1313.864159mECoRSambalpur, Odisha
21|--|ATSAttabira  22:18+5622:20+592m--1338.377164mECoRBargarh, Odisha
22|--|BRGABargarh Road (3)XO  22:34+1:0222:39+1:085m--1356.472185mECoRBargarh, Odisha
23|--|BRPLBarpaliX  22:57 22:55+1:0922:59 22:57+1:142m--1375.665178mECoRBarpali, Odisha
24|--|BLGRBalangir (3)  23:50+1:1723:55+1:275m--1432.647210mECoRBolangir, Odisha
25|--|BUDMBadmal  00:50+1:1300:52+1:142m--2476.023209mECoRDumerbahal Rd, Odisha
26|--|TIGTitlagarh Junction (3)XO  01:45+4301:55+4710m--2496.056212mECoRTitlagarh, Odisha
27%==%KSNGKesinga (1)XO  02:10+4802:12+482m12510.065183mECoRKesinga, Odisha
28%==%RPRDRupra RoadO  02:27+5102:29+512m--2526.244233mECoRKalahandi, Odisha
29%==%NRLRNorla RoadO  02:38+5002:40+502m--2532.860247mECoRKalahandi, Odisha
30%==%AMBAmbodala  03:05+4903:07+492m--2557.839374mECoRState Highway 6, Odisha
31%==%MNGDMunigudaX  03:45+3903:47+402m--2582.841335mECoRMuniguda, Odisha
32%==%THVTherubaliO  04:40+2504:42+282m--2618.831270mECoRRayagada, Odisha
33%==%SPRDSingapuram Road (2)X  05:00+3005:02+342m--2628.115248mECoRJaykaypur, Odisha
34%==%RGDARayagada (3)O  05:40+1705:55+1915m--2637.473229mECoRRayagada ph.no 06856-222407, Odisha
35%==%PVPTParvatipuram TownXO  06:32+006:34+02m--2682.725121mECoRParvatipuram, Andhra Pradesh
36%==%PVPParvatipuram (3)X  06:38+2206:40+222m--2684.372122mECoRParvatipuram, Andhra Pradesh
37%==%VBLBobbili Junction (2)X  07:00+2307:03+223m22708.249137mECoRBobbili, Andhra Pradesh
38%==%VZMVizianagaram Junction (5)  08:15 08:10+1508:20 08:15+235m--2762.58463mECoRVizianagaram, Andhra Pradesh
39/==/KTVKottavalasa Junction (5)X  08:48 08:40+3608:50 08:42+372m--2797.56058mECoRVizianagaram District, Andhra Pradesh
40/==/SCMSimhachalam (2)X  09:17 09:00-09:19 09:02-2m--2815.5927mECoRVisakhapatnam, Andhra Pradesh
41/==/VSKPVisakhapatnam Junction (8)XO10:05 09:55+1010:25 10:15+1320m32823.73311mECoRVishakhapatnam 530001, Andhra Pradesh
42/==/DVDDuvvada (4)X  10:55 10:45+1610:57 10:47+162m12840.04246mECoRVishakhapatnam District, Andhra Pradesh
43/==/AKPAnakapalle (3)  11:10+2211:11+241m22856.07130mSCRAnakapalle ph.no . 08924-221698, Andhra Pradesh
44/==/YLMElamanchili (2)X  11:31+3111:32+341m--2879.77123mSCRVisakhapatnam District, Andhra Pradesh
45/==/NRPNarsipatnam Road (2)  11:47+4111:48+421m--2897.58418mSCRVisakhapatnam District, Andhra Pradesh
46/==/TUNITuni (2)X  12:04+4612:05+471m12919.87124mSCRTuni ph.no. 08854-252172, Andhra Pradesh
47/==/ANVAnnavaram (3)  12:19+5212:20+531m12936.47627mSCREast Godavari District, Andhra Pradesh
48/==/GLPGollaproluX  12:35+5712:36+571m--2955.54919mSCRGollaprollu, Andhra Pradesh
49/==/PAPPithapuram (2)  12:43+5712:44+1:001m--2961.27222mSCREast Godavari District, Andhra Pradesh
50/==/SLOSamalkot Junction (3)  12:54+1:0112:55+1:021m32973.38418mSCRSamalkot, Andhra Pradesh
51/==/APTAnaparti (3)  13:14+1:1313:15+1:151m--2999.83821mSCREast Godavari District, Andhra Pradesh
52/==/DWPDwarapudi (3)  13:21+1:1213:22+1:121m--21003.52420mSCREast Godavari District, Andhra Pradesh
53/==/RJYRajahmundry (3)  14:11+4714:16+485m121023.53623mSCRRajahmundry ph.no. 0883-2420541, Andhra Pradesh
54/==/KVRKovvur (3)  14:29+5514:30+551m321031.36125mSCRWest Godavari, Andhra Pradesh
55/==/NDDNidadavolu Junction (3)  14:44+5914:45+1:001m221045.67120mSCRNidadavolu jtn ph.no. 08813-210325, Andhra Pradesh
56/==/TDDTadepalligudem (3)X  15:02+1:0015:03+1:011m321065.68718mSCRTadepalligudem, Andhra Pradesh
57/==/EEEluru (3)X  15:36+1:0315:37+1:051m321113.43319mSCREluru Ph.no. 08812 226401., Andhra Pradesh
58/==/BZAVijayawada Junction (10)X  17:25+4417:45+4420m--21172.76924mSCRVijayawada 520001, Andhra Pradesh
59/==/TELTenali Junction (5)O  18:12+5918:13+1:001m321204.06616mSCRTel: 08644-227834, Andhra Pradesh
60/==/NDONidubrolu (3)  18:33+1:0218:34+1:031m--21226.0659mSCRNidubrolu, Andhra Pradesh
61/==/BPPBapatla (3)X  18:53+1:0518:54+1:061m--21246.67510mSCRBapatla, Andhra Pradesh
62/==/CLXChirala (4)X  19:06+1:0519:07+1:071m--21261.7768mSCRChirala, Andhra Pradesh
63/==/CJMChinnaganjam (3)X  19:23+1:1319:24+1:141m--21282.0369mSCRChinna Ganjam, Andhra Pradesh
64/==/OGLOngole (3)  20:12+5520:13+571m321311.07712mSCROngole, Andhra Pradesh
65/==/SKMSingarayakonda (2)X  20:35+1:0620:36+1:071m221339.29126mSCRSingarayakonda, Andhra Pradesh
66/==/KVZKavali (4)X  21:01+3621:02+361m221377.07621mSCRKavali, Andhra Pradesh
67/==/BTTRBitragunta (2)X  21:15-21:16-1m221393.54515mSCRBitragunta, Andhra Pradesh
68/==/NLRNellore (4)X  22:02+3622:03+361m321427.81721mSCRNellore, Andhra Pradesh
69/==/GDRGudur Junction (3)  00:18+2200:20+242m131466.36919mSCRGudur, Andhra Pradesh
70/==/NYPNayadupeta (3)  00:44+3200:45+351m231493.96833mSRNayudupeta, Andhra Pradesh
71/==/SPESullurupeta (3)  01:09+4301:10+441m231521.2479mSR524121., Andhra Pradesh
72/==/MASChennai Central (12)↵¶02:55+3403:25+3630m531603.6579mSRChennai 600003, Tamil Nadu
73/==/TRLTiruvallur (6)  04:09+4404:10+451m--31645.36550mSRTiruvallur, Tamil Nadu
74/==/AJJArakkonam Junction (8)X  04:35+4304:40+415m--31672.36891mSRArakkonam, Tamil Nadu
75/==/MCNMukundarayapuram (2)  05:19+4105:20+431m--31716.533198mSRSipcot Ranipet, Tamil Nadu
76/==/KPDKatpadi Junction (5)  05:50+3105:55+355m131733.177213mSRVellore 632007, Tamil Nadu
77/==/GYMGudiyattam (3)  06:14+3606:15+381m331757.691269mSRVellore, Tamil Nadu
78/==/VNVaniyambadiXO  06:44+4206:45+431m--31801.428357mSRVaniyambadi, Tamil Nadu
79/==/JTJJolarpettai Junction (5)O  07:18+2907:20+322m--31816.943405mSRJolarpettai, Tamil Nadu
80/==/TPTTirupattur (2)  07:30+3907:32+402m--31824.173392mSRTirupattur ph.no. 04179-220062, Tamil Nadu
81/==/SLYSamalpatti  07:50 07:51+4107:52+432 1m--31847.290388mSRSamalpatti ph.no. 04341-245601, Tamil Nadu
82/==/BQIBommidiX  08:23+5108:25+542m--31893.9520mSRBommidi ph.no. 04346-244441, Tamil Nadu
83/==/SASalem Junction (6)XO  09:00 09:15+5109:05 09:20+525m--31937.161283mSRSalem, Tamil Nadu
84/==/EDErode Junction (4)X  10:15 10:20+5310:25 10:30+5510m231998.570175mSRErode ph.no: 0424-2256111, Tamil Nadu
85/==/TUPTiruppur (2)  11:03 11:13+5911:05 11:15+592m132048.743305mSRTiruppur. Ph:0421-2200450, Tamil Nadu
86/==/CBECoimbatore Main Junction (6)  12:08 12:25+5012:10 12:30+532 5m--32099.239416mSRCoimbatore 641001, Tamil Nadu
87/==/PGTPalakkad Junction (4)X  13:30 13:55+4713:35 14:00+515m--32154.53684mSRPalghat Tel: 0491 2555231, Kerala
88/==/SRRShoranur Junction (7)X14:40 15:15+3915:25+5645 10m532199.14226mSRShoranur ph.no 0466-2222913, Kerala
89/==/TCRThrissur (4)•  16:27 16:12+5916:30 16:15+593m132232.1606mSRThrissur Tel: 0487 2423150, Kerala
90/==/AWYAluva (3)XO  17:18 17:10+1:0217:20 17:12+1:022m132286.71712mSRPh: 0484-2624141, Kerala
91/=-/ERSErnakulam Junction (South) (6)  18:26 18:20+4418:30 18:25+484 5m432306.1413mSRErnakulam 682016, Kerala
92/--/TUVRTuravur (2)  19:04 18:59+4219:05 19:00+431m132329.5665mSRThuravoor, Kerala
93/--/SRTLCherthala (3)O  19:19 19:09+4619:20 19:10+481m232339.4737mSRPh: 0478- 2812500, Kerala
94/--/MAKMMararikkulam (1)X  19:25 19:19+1:0019:45 19:20+1:0720 1m132350.41312mSRMararikulam, Kerala
95/--/ALLPAlappuzha (3)  20:20+46-332363.6-8mSRPh:0477-2253965, Kerala
Scroll to Top
Scroll to Bottom